Time;durP1;ratioP1;P1;durP2;ratioP2;P2;SDS_P1;SDS_P2;PMS_P1;PMS_P2;Temp;Humidity;BMP_temperature;BMP_pressure;BME280_temperature;BME280_humidity;BME280_pressure;Samples;Min_cycle;Max_cycle;Signal;HPM_P1;HPM_P2
2023/07/03 01:54:15;;;;;;;7.80;3.90;;;;;;;19.87;56.23;98794.09;80332;1292;3012934;-63
2023/07/03 01:56:44;;;;;;;7.30;4.70;;;;;;;19.86;55.92;98800.31;78119;1298;3053233;-61
2023/07/03 01:59:12;;;;;;;9.20;3.50;;;;;;;19.81;56.37;98801.02;79276;1301;3013624;-62
2023/07/03 02:01:52;;;;;;;11.20;4.10;;;;;;;19.73;57.02;98805.91;79531;1292;3011946;-63
2023/07/03 02:04:41;;;;;;;5.80;3.70;;;;;;;19.68;57.03;98805.85;78333;1292;3068811;-61
2023/07/03 02:07:10;;;;;;;7.30;3.60;;;;;;;19.57;57.71;98807.09;76188;1295;5692087;-60
2023/07/03 02:09:39;;;;;;;6.90;3.80;;;;;;;19.61;57.48;98811.05;79617;1292;3013922;-63
2023/07/03 02:12:11;;;;;;;8.30;3.90;;;;;;;19.61;57.72;98815.82;78418;1293;3052769;-60
2023/07/03 02:14:38;;;;;;;8.00;3.90;;;;;;;19.50;58.32;98810.15;79661;1292;3011857;-61
2023/07/03 02:17:08;;;;;;;9.40;3.80;;;;;;;19.51;58.37;98817.84;79687;1295;3011654;-61
2023/07/03 02:19:37;;;;;;;9.60;3.50;;;;;;;19.38;59.40;98818.71;78361;1295;3068829;-61
2023/07/03 02:22:04;;;;;;;6.90;3.40;;;;;;;19.43;58.72;98820.45;79664;1292;3011843;-61
2023/07/03 02:24:31;;;;;;;7.90;4.00;;;;;;;19.45;59.05;98824.17;79628;1291;3012010;-62
2023/07/03 02:27:00;;;;;;;10.00;3.70;;;;;;;19.40;59.76;98819.04;78403;1292;3053414;-61
2023/07/03 02:29:26;;;;;;;7.00;3.50;;;;;;;19.40;59.72;98821.02;79657;1295;3013163;-61
2023/07/03 02:31:53;;;;;;;5.20;3.40;;;;;;;19.40;59.83;98819.21;79629;1293;3011652;-62
2023/07/03 02:34:21;;;;;;;10.50;3.70;;;;;;;19.40;60.14;98816.88;78495;1292;3028735;-62
2023/07/03 02:36:49;;;;;;;4.50;3.00;;;;;;;19.42;60.24;98816.25;79759;1292;3013588;-64
2023/07/03 02:39:16;;;;;;;5.00;2.80;;;;;;;19.41;60.15;98817.27;79613;1291;3011556;-61
2023/07/03 02:41:44;;;;;;;7.90;3.30;;;;;;;19.40;60.37;98818.45;78417;1292;3052971;-63
2023/07/03 02:44:11;;;;;;;5.90;2.60;;;;;;;19.44;60.58;98818.98;79692;1295;3013323;-63
2023/07/03 02:46:39;;;;;;;8.50;3.00;;;;;;;19.46;60.61;98817.65;79641;1292;3011543;-62
2023/07/03 02:49:07;;;;;;;5.80;3.10;;;;;;;19.52;61.07;98819.17;78332;1295;3069095;-63
2023/07/03 02:51:34;;;;;;;13.80;3.00;;;;;;;19.55;61.13;98816.75;79769;1292;3012885;-59
2023/07/03 02:54:04;;;;;;;7.00;2.60;;;;;;;19.58;61.28;98820.68;79616;1291;3011604;-62
2023/07/03 02:56:31;;;;;;;5.20;2.90;;;;;;;19.56;61.56;98819.61;78478;1291;3052192;-61
2023/07/03 02:58:58;;;;;;;5.30;3.00;;;;;;;19.62;61.58;98822.85;79682;1292;3013556;-63
2023/07/03 03:01:31;;;;;;;3.70;3.00;;;;;;;19.70;61.18;98820.17;79213;1292;3011802;-61
2023/07/03 03:03:58;;;;;;;7.70;3.50;;;;;;;19.71;61.50;98820.34;79636;1295;3013524;-62
2023/07/03 03:06:25;;;;;;;7.60;3.10;;;;;;;19.72;61.77;98827.50;79713;1294;3013107;-63
2023/07/03 03:08:53;;;;;;;6.30;3.60;;;;;;;19.73;61.75;98827.40;78410;1292;3055877;-63
2023/07/03 03:11:20;;;;;;;6.00;3.50;;;;;;;19.78;61.87;98830.16;79632;1292;3013960;-62
2023/07/03 03:13:48;;;;;;;6.50;3.80;;;;;;;19.73;62.17;98832.50;79550;1297;3011509;-62
2023/07/03 03:16:17;;;;;;;12.80;3.70;;;;;;;19.76;62.58;98838.20;78442;1295;3052268;-61
2023/07/03 03:18:44;;;;;;;14.90;3.80;;;;;;;19.75;62.67;98834.63;79699;1292;3018394;-61
2023/07/03 03:21:11;;;;;;;7.10;3.40;;;;;;;19.80;62.40;98833.54;79595;1296;3011685;-60
2023/07/03 03:23:40;;;;;;;7.10;3.60;;;;;;;19.84;62.44;98840.23;78582;1295;3056485;-62
2023/07/03 03:26:07;;;;;;;6.80;4.10;;;;;;;19.79;62.81;98836.70;79570;1293;3013506;-65
2023/07/03 03:28:34;;;;;;;8.80;3.90;;;;;;;19.80;62.87;98841.90;79724;1292;3013235;-61
2023/07/03 03:31:02;;;;;;;10.40;3.80;;;;;;;19.74;63.37;98836.09;78445;1295;3052455;-64
2023/07/03 03:33:31;;;;;;;8.70;4.50;;;;;;;19.76;63.17;98840.56;79576;1297;3012794;-63
2023/07/03 03:35:58;;;;;;;7.30;4.50;;;;;;;19.70;63.67;98834.80;79615;1293;3011688;-62
2023/07/03 03:38:26;;;;;;;9.00;4.10;;;;;;;19.72;63.88;98831.76;78417;1292;3056822;-62
2023/07/03 03:40:57;;;;;;;5.10;3.50;;;;;;;19.74;63.95;98837.20;79594;1293;3019680;-63
2023/07/03 03:43:26;;;;;;;9.20;3.80;;;;;;;19.85;63.62;98840.10;78440;1295;3049920;-63
2023/07/03 03:45:56;;;;;;;9.20;3.90;;;;;;;19.84;63.69;98833.47;79554;1297;3013556;-64
2023/07/03 03:48:25;;;;;;;9.40;3.90;;;;;;;19.85;63.83;98846.54;78470;1294;3069534;-62
2023/07/03 03:50:52;;;;;;;6.70;3.70;;;;;;;19.92;63.70;98839.55;79703;1292;3013608;-64
2023/07/03 03:53:19;;;;;;;11.40;4.40;;;;;;;19.86;64.79;98840.74;79591;1291;3013145;-64
2023/07/03 03:55:49;;;;;;;7.20;3.70;;;;;;;19.88;64.86;98837.11;78471;1292;3052975;-63
2023/07/03 03:58:17;;;;;;;6.10;3.40;;;;;;;19.97;64.95;98840.03;79723;1295;3011580;-63
2023/07/03 04:00:45;;;;;;;12.10;3.80;;;;;;;20.08;64.51;98837.34;78413;1294;3028820;-63
2023/07/03 04:03:12;;;;;;;8.00;4.30;;;;;;;20.18;64.58;98842.96;79521;1295;3019159;-63
2023/07/03 04:05:41;;;;;;;6.40;3.90;;;;;;;20.22;64.60;98839.98;79642;1292;3011422;-64
2023/07/03 04:08:09;;;;;;;7.50;4.10;;;;;;;20.29;64.71;98841.46;78315;1297;3056090;-62
2023/07/03 04:10:36;;;;;;;8.90;4.50;;;;;;;20.32;65.15;98841.71;79676;1292;3013029;-62
2023/07/03 04:13:03;;;;;;;7.30;4.30;;;;;;;20.35;65.41;98846.91;79777;1292;3011816;-64
2023/07/03 04:15:33;;;;;;;6.30;4.00;;;;;;;20.44;65.13;98849.95;78448;1294;3028606;-60
2023/07/03 04:18:00;;;;;;;7.30;4.20;;;;;;;20.48;65.52;98849.73;79673;1295;3011747;-61
2023/07/03 04:20:29;;;;;;;8.80;4.80;;;;;;;20.48;65.52;98852.73;79136;1293;3011902;-63
2023/07/03 04:22:56;;;;;;;8.70;4.50;;;;;;;20.57;65.19;98856.31;79819;1294;3013358;-62
2023/07/03 04:25:23;;;;;;;10.60;5.10;;;;;;;20.66;65.08;98854.29;79672;1292;3011520;-62
2023/07/03 04:27:51;;;;;;;7.40;4.60;;;;;;;20.69;65.62;98848.47;78531;1294;3028090;-64
2023/07/03 04:30:18;;;;;;;6.50;4.90;;;;;;;20.72;65.71;98850.93;79767;1291;3013150;-65
2023/07/03 04:32:53;;;;;;;12.70;5.20;;;;;;;20.83;65.40;98856.02;79765;1292;3011524;-64
2023/07/03 04:35:21;;;;;;;8.40;4.60;;;;;;;20.79;66.07;98853.39;78343;1295;3069383;-62
2023/07/03 04:37:49;;;;;;;7.20;5.20;;;;;;;20.86;66.04;98853.61;79897;1292;3012946;-61
2023/07/03 04:40:16;;;;;;;7.90;4.90;;;;;;;20.95;66.09;98849.30;79618;1292;3012890;-63
2023/07/03 04:42:45;;;;;;;11.90;4.10;;;;;;;21.02;66.56;98850.29;78418;1295;3052887;-62
2023/07/03 04:45:13;;;;;;;7.40;4.30;;;;;;;21.62;65.41;98854.59;79759;1292;3013337;-63
2023/07/03 04:47:40;;;;;;;10.10;4.90;;;;;;;22.08;63.51;98857.30;79667;1292;3011589;-64
2023/07/03 04:50:14;;;;;;;7.70;4.70;;;;;;;22.23;63.31;98857.56;78415;1294;3069128;-61
2023/07/03 04:52:45;;;;;;;12.80;5.30;;;;;;;22.19;63.68;98863.86;79167;1295;3011939;-63
2023/07/03 04:55:12;;;;;;;6.80;5.00;;;;;;;22.23;64.00;98864.80;79720;1292;3012870;-66
2023/07/03 04:57:43;;;;;;;10.50;5.50;;;;;;;22.36;63.04;98868.20;79222;1293;3011730;-62
2023/07/03 05:00:14;;;;;;;16.00;5.50;;;;;;;22.20;64.13;98868.88;79733;1292;3013578;-63
2023/07/03 05:02:48;;;;;;;9.70;5.80;;;;;;;22.09;64.83;98869.32;78429;1295;3049883;-65
2023/07/03 05:05:15;;;;;;;6.60;5.80;;;;;;;22.04;65.29;98869.67;79619;1292;3013143;-64
2023/07/03 05:07:44;;;;;;;14.50;5.40;;;;;;;22.04;65.48;98870.77;78467;1295;3052618;-63
2023/07/03 05:10:12;;;;;;;11.40;5.40;;;;;;;22.07;65.55;98872.01;79620;1295;3013919;-63
2023/07/03 05:12:38;;;;;;;9.80;5.60;;;;;;;22.03;65.82;98869.07;79732;1292;3011915;-62
2023/07/03 05:15:08;;;;;;;12.00;5.20;;;;;;;22.03;65.95;98874.62;78474;1292;3050401;-61
2023/07/03 05:17:38;;;;;;;8.40;5.40;;;;;;;22.11;65.69;98869.81;79705;1291;3013462;-63
2023/07/03 05:20:08;;;;;;;6.50;5.20;;;;;;;22.14;65.92;98869.16;78410;1295;3049249;-63
2023/07/03 05:22:38;;;;;;;8.70;5.00;;;;;;;22.26;65.68;98874.33;79784;1291;3013273;-64
2023/07/03 05:25:07;;;;;;;8.10;5.50;;;;;;;22.39;65.56;98878.27;78457;1295;3052438;-64
2023/07/03 05:27:34;;;;;;;10.40;5.40;;;;;;;22.48;65.94;98878.27;79701;1292;3012886;-62
2023/07/03 05:30:03;;;;;;;8.90;4.90;;;;;;;22.50;66.26;98877.99;79718;1292;3012980;-62
2023/07/03 05:32:32;;;;;;;6.30;4.60;;;;;;;22.48;65.64;98881.86;78390;1292;3049459;-63
2023/07/03 05:35:05;;;;;;;9.70;5.50;;;;;;;22.55;65.35;98877.95;79779;1291;3012964;-64
2023/07/03 05:37:35;;;;;;;9.40;4.70;;;;;;;22.68;65.69;98877.98;78447;1295;3053959;-64
2023/07/03 05:40:05;;;;;;;11.50;4.70;;;;;;;22.72;65.16;98880.21;79772;1294;3013171;-62
2023/07/03 05:42:33;;;;;;;6.20;4.80;;;;;;;22.81;64.88;98878.22;78419;1292;3049037;-62
2023/07/03 05:45:00;;;;;;;13.60;6.00;;;;;;;22.88;65.60;98879.70;79852;1294;3019052;-64
2023/07/03 05:47:27;;;;;;;23.00;7.00;;;;;;;22.96;64.48;98876.23;79635;1295;3011820;-63
2023/07/03 05:49:55;;;;;;;25.80;7.70;;;;;;;23.01;65.07;98871.17;78390;1293;3027607;-63
2023/07/03 05:52:22;;;;;;;20.00;7.80;;;;;;;23.12;65.58;98871.60;79626;1295;3012958;-61
2023/07/03 05:54:49;;;;;;;32.70;11.90;;;;;;;23.11;65.18;98871.05;79701;1295;3011822;-62
2023/07/03 05:57:17;;;;;;;31.80;11.80;;;;;;;23.13;64.70;98874.95;78363;1295;3049918;-63
2023/07/03 05:59:46;;;;;;;24.40;9.40;;;;;;;23.10;64.21;98877.38;79659;1292;3013007;-61
2023/07/03 06:02:13;;;;;;;18.10;7.30;;;;;;;23.19;64.21;98878.26;79636;1292;3011721;-61
2023/07/03 06:04:42;;;;;;;8.90;4.90;;;;;;;23.19;63.71;98880.96;78482;1295;3050516;-61
2023/07/03 06:07:09;;;;;;;15.20;4.90;;;;;;;23.24;63.42;98873.03;79645;1295;3013819;-62
2023/07/03 06:09:36;;;;;;;6.40;3.90;;;;;;;23.47;63.39;98871.77;79651;1295;3011933;-62
2023/07/03 06:12:04;;;;;;;9.60;4.20;;;;;;;23.60;62.01;98872.85;78357;1295;3027415;-62
2023/07/03 06:14:34;;;;;;;14.50;3.60;;;;;;;23.67;61.09;98879.21;79645;1293;3013702;-64
2023/07/03 06:17:03;;;;;;;9.50;4.40;;;;;;;23.75;60.65;98877.98;79130;1293;3011861;-64
2023/07/03 06:19:31;;;;;;;8.60;3.50;;;;;;;23.74;59.63;98879.17;79818;1291;3013130;-63
2023/07/03 06:21:58;;;;;;;9.10;3.90;;;;;;;23.77;59.19;98878.90;79642;1291;3011526;-62
2023/07/03 06:24:27;;;;;;;10.60;3.50;;;;;;;23.95;59.67;98877.58;78712;1295;3053024;-64
2023/07/03 06:26:57;;;;;;;5.70;3.60;;;;;;;23.95;58.63;98877.14;79856;1295;3011710;-63
2023/07/03 06:29:25;;;;;;;15.70;3.90;;;;;;;24.00;59.32;98877.60;79110;1291;3011944;-65
2023/07/03 06:31:52;;;;;;;9.50;4.00;;;;;;;24.05;58.87;98878.40;79734;1295;3013618;-62
2023/07/03 06:34:19;;;;;;;7.10;3.80;;;;;;;24.19;57.96;98879.30;79666;1295;3011625;-62
2023/07/03 06:36:47;;;;;;;9.20;4.20;;;;;;;24.24;57.55;98879.75;78501;1295;3027558;-63
2023/07/03 06:39:14;;;;;;;15.70;4.30;;;;;;;24.40;58.94;98883.41;79626;1295;3018665;-64
2023/07/03 06:41:41;;;;;;;10.30;4.00;;;;;;;24.53;59.68;98881.98;79624;1295;3013227;-62
2023/07/03 06:44:16;;;;;;;10.20;4.20;;;;;;;24.64;57.23;98882.98;78466;1292;3029412;-63
2023/07/03 06:46:44;;;;;;;6.40;3.20;;;;;;;24.68;56.62;98884.86;78381;1292;3055768;-63
2023/07/03 06:49:12;;;;;;;5.90;3.40;;;;;;;24.77;56.30;98885.54;79636;1292;3013741;-63
2023/07/03 06:51:40;;;;;;;6.20;3.40;;;;;;;24.91;56.43;98891.25;79761;1292;3011561;-62
2023/07/03 06:54:08;;;;;;;7.70;3.30;;;;;;;25.09;55.67;98886.65;78365;1295;3053195;-64
2023/07/03 06:56:35;;;;;;;9.70;3.40;;;;;;;25.17;54.64;98892.27;79762;1295;3012953;-63
2023/07/03 06:59:01;;;;;;;9.10;3.40;;;;;;;25.25;53.15;98888.73;79677;1298;3013131;-62
2023/07/03 07:01:30;;;;;;;4.70;3.00;;;;;;;25.35;52.81;98892.87;78452;1295;3027543;-63
2023/07/03 07:03:56;;;;;;;12.90;3.30;;;;;;;25.41;51.79;98892.64;79732;1292;3013522;-64
2023/07/03 07:06:24;;;;;;;6.90;2.90;;;;;;;25.48;51.75;98893.16;79591;1293;3012066;-64
2023/07/03 07:08:53;;;;;;;9.70;3.20;;;;;;;25.53;49.94;98897.88;78492;1295;3053214;-64
2023/07/03 07:11:31;;;;;;;6.90;2.80;;;;;;;25.60;49.19;98897.27;79862;1295;3012887;-63
2023/07/03 07:14:00;;;;;;;5.70;2.80;;;;;;;25.71;47.24;98904.81;78578;1292;3051942;-63
2023/07/03 07:16:30;;;;;;;5.40;2.70;;;;;;;25.74;47.50;98905.77;79677;1292;3015106;-63
2023/07/03 07:19:00;;;;;;;8.00;3.10;;;;;;;25.74;48.18;98904.77;78383;1292;3053791;-64
2023/07/03 07:21:27;;;;;;;5.80;2.60;;;;;;;25.85;46.31;98903.79;79668;1295;3011959;-66
2023/07/03 07:23:59;;;;;;;8.00;2.50;;;;;;;25.93;43.41;98913.73;79200;1295;3011711;-63
2023/07/03 07:26:33;;;;;;;4.00;2.20;;;;;;;26.09;43.68;98906.30;79895;1292;3011550;-64
2023/07/03 07:29:01;;;;;;;6.20;2.40;;;;;;;26.13;44.13;98910.61;78579;1292;3069649;-65
2023/07/03 07:31:28;;;;;;;10.20;2.30;;;;;;;26.27;44.53;98908.12;79750;1292;3013657;-65
2023/07/03 07:33:55;;;;;;;3.70;2.20;;;;;;;26.38;43.62;98909.96;79828;1293;3011888;-64
2023/07/03 07:36:23;;;;;;;7.00;2.50;;;;;;;26.58;43.02;98913.85;78685;1293;3026473;-62
2023/07/03 07:38:53;;;;;;;3.70;2.20;;;;;;;26.68;41.76;98909.48;79693;1292;3011664;-65
2023/07/03 07:41:21;;;;;;;10.60;2.30;;;;;;;26.83;41.73;98906.23;78499;1295;3026174;-63
2023/07/03 07:43:48;;;;;;;6.50;2.30;;;;;;;26.93;41.81;98907.98;79668;1295;3013153;-60
2023/07/03 07:46:15;;;;;;;5.80;2.30;;;;;;;26.93;40.62;98917.42;79751;1295;3011411;-66
2023/07/03 07:48:45;;;;;;;4.70;2.00;;;;;;;26.94;38.06;98914.36;78433;1294;3057200;-62
2023/07/03 07:51:11;;;;;;;7.00;1.80;;;;;;;26.90;35.88;98923.41;79630;1292;3011539;-63
2023/07/03 07:53:38;;;;;;;3.40;1.70;;;;;;;26.94;36.35;98926.09;79785;1291;3011685;-63
2023/07/03 07:56:07;;;;;;;2.50;2.00;;;;;;;27.00;36.56;98926.28;78463;1292;3052639;-63
2023/07/03 07:58:34;;;;;;;6.10;2.50;;;;;;;27.07;36.88;98932.77;79711;1295;3013233;-64
2023/07/03 08:01:01;;;;;;;9.20;2.50;;;;;;;27.09;37.07;98930.64;79554;1295;3011990;-62
2023/07/03 08:03:29;;;;;;;3.90;2.10;;;;;;;27.16;36.99;98925.14;78427;1295;3057298;-63
2023/07/03 08:06:00;;;;;;;6.90;2.20;;;;;;;27.28;36.10;98929.27;79761;1292;3018712;-65
2023/07/03 08:08:28;;;;;;;6.10;2.20;;;;;;;27.41;35.86;98928.02;78623;1294;3050546;-65
2023/07/03 08:10:55;;;;;;;5.80;2.10;;;;;;;27.37;35.24;98933.84;79853;1295;3013066;-65
2023/07/03 08:13:22;;;;;;;3.40;2.00;;;;;;;27.39;35.54;98929.89;79836;1292;3011544;-66
2023/07/03 08:15:51;;;;;;;3.50;2.00;;;;;;;27.41;35.60;98929.80;78591;1295;3052107;-65
2023/07/03 08:18:18;;;;;;;3.80;2.20;;;;;;;27.34;35.42;98928.13;79814;1293;3013368;-66
2023/07/03 08:20:45;;;;;;;6.00;2.10;;;;;;;27.44;35.70;98928.88;79774;1292;3013473;-65
2023/07/03 08:23:12;;;;;;;6.60;2.40;;;;;;;27.53;35.64;98928.70;78528;1295;3051970;-65
2023/07/03 08:25:40;;;;;;;8.10;2.30;;;;;;;27.63;36.25;98930.26;79650;1295;3012952;-63
2023/07/03 08:28:08;;;;;;;6.20;2.20;;;;;;;27.75;35.66;98927.08;79654;1295;3011671;-62
2023/07/03 08:30:37;;;;;;;5.80;2.20;;;;;;;27.61;35.53;98934.23;78427;1295;3051844;-63
2023/07/03 08:33:04;;;;;;;4.00;2.00;;;;;;;27.76;36.01;98931.59;79683;1291;3014651;-62
2023/07/03 08:35:30;;;;;;;3.20;2.00;;;;;;;27.73;35.24;98934.52;79638;1293;3013204;-63
2023/07/03 08:37:59;;;;;;;4.00;2.10;;;;;;;27.80;35.93;98929.95;78435;1294;3048407;-63
2023/07/03 08:40:26;;;;;;;5.90;1.70;;;;;;;27.81;35.69;98931.00;79670;1295;3013206;-65
2023/07/03 08:42:58;;;;;;;2.90;1.70;;;;;;;27.77;34.70;98932.16;79321;1292;3011589;-63
2023/07/03 08:45:42;;;;;;;9.00;2.00;;;;;;;27.94;34.61;98933.15;79600;1297;3011498;-64
2023/07/03 08:48:33;;;;;;;2.70;1.80;;;;;;;28.07;34.70;98932.92;78356;1295;3056487;-63
2023/07/03 08:51:03;;;;;;;5.80;1.90;;;;;;;28.06;34.63;98926.83;78595;1295;3049129;-62
2023/07/03 08:53:35;;;;;;;6.10;2.00;;;;;;;28.19;34.90;98933.27;79649;1295;3013032;-62
2023/07/03 08:56:17;;;;;;;2.80;1.90;;;;;;;28.35;35.13;98927.41;78449;1295;3049622;-62
2023/07/03 08:58:45;;;;;;;2.30;1.40;;;;;;;28.48;34.85;98932.02;78571;1295;3054430;-64
2023/07/03 09:02:02;;;;;;;3.50;1.90;;;;;;;28.50;34.46;98938.92;79758;1292;3015802;-65
2023/07/03 09:04:43;;;;;;;6.90;2.00;;;;;;;28.53;34.63;98942.23;78390;1293;3052941;-63
2023/07/03 09:07:16;;;;;;;3.70;2.10;;;;;;;28.47;35.03;98938.77;78372;1295;3057237;-63
2023/07/03 09:09:47;;;;;;;;;;;;;;;28.40;34.43;98939.45;79742;1295;3011589;-64
2023/07/03 09:12:23;;;;;;;3.00;1.80;;;;;;;28.48;34.58;98941.40;78433;1293;3052723;-62
2023/07/03 09:15:19;;;;;;;3.10;1.70;;;;;;;28.43;34.48;98940.53;79114;1295;3011783;-64
2023/07/03 09:17:47;;;;;;;8.60;2.00;;;;;;;28.56;34.94;98938.17;78497;1295;3050142;-61
2023/07/03 09:20:15;;;;;;;5.90;2.00;;;;;;;28.52;35.15;98939.33;79770;1298;3013734;-64
2023/07/03 09:22:50;;;;;;;4.10;2.20;;;;;;;28.69;35.50;98946.84;79673;1293;3011642;-63
2023/07/03 09:25:22;;;;;;;4.40;2.00;;;;;;;28.85;35.05;98944.46;78332;1293;3051969;-63
2023/07/03 09:27:52;;;;;;;5.10;1.80;;;;;;;28.88;34.62;98941.73;79799;1295;3011645;-62
2023/07/03 09:30:22;;;;;;;3.50;1.80;;;;;;;28.84;34.44;98947.17;78383;1295;3049700;-63
2023/07/03 09:32:49;;;;;;;2.40;1.70;;;;;;;28.98;34.44;98947.38;79585;1292;3012064;-63
2023/07/03 09:35:20;;;;;;;2.80;1.80;;;;;;;29.11;34.26;98942.33;79142;1295;3011776;-63
2023/07/03 09:37:50;;;;;;;4.80;2.00;;;;;;;29.24;33.69;98938.81;79721;1295;3013760;-64
2023/07/03 09:40:20;;;;;;;3.60;2.10;;;;;;;28.99;33.15;98947.20;78465;1293;3051243;-63
2023/07/03 09:42:46;;;;;;;3.20;1.80;;;;;;;29.10;33.91;98943.70;79619;1294;3013173;-63
2023/07/03 09:45:15;;;;;;;3.80;2.70;;;;;;;29.43;33.92;98944.82;79607;1293;3013480;-62
2023/07/03 09:47:52;;;;;;;2.90;2.00;;;;;;;29.47;33.54;98943.89;78477;1295;3049340;-63
2023/07/03 09:50:23;;;;;;;4.90;1.90;;;;;;;29.64;33.25;98942.61;78407;1293;3052563;-64
2023/07/03 09:52:50;;;;;;;3.70;1.70;;;;;;;29.61;33.14;98960.35;79712;1295;3012827;-63
2023/07/03 09:55:17;;;;;;;2.00;1.80;;;;;;;29.62;33.01;98940.23;79505;1292;3011421;-64
2023/07/03 09:57:45;;;;;;;3.70;1.90;;;;;;;29.46;33.19;98951.88;78514;1295;3068371;-63
2023/07/03 10:00:14;;;;;;;2.90;1.50;;;;;;;29.58;33.09;98950.30;79865;1293;3012920;-66
2023/07/03 10:02:44;;;;;;;4.60;1.70;;;;;;;29.64;31.98;98943.90;79231;1294;3013592;-64
2023/07/03 10:05:15;;;;;;;3.50;2.10;;;;;;;29.69;32.22;98936.46;79656;1292;3014577;-64
2023/07/03 10:07:44;;;;;;;2.10;1.50;;;;;;;29.66;31.80;98942.95;78424;1294;3052028;-62
2023/07/03 10:10:22;;;;;;;8.00;1.60;;;;;;;29.67;31.80;98945.77;79776;1295;3013234;-67
2023/07/03 10:13:14;;;;;;;5.80;1.90;;;;;;;29.70;31.77;98948.35;78323;1298;3068687;-65
2023/07/03 10:15:43;;;;;;;4.10;1.70;;;;;;;29.78;31.89;98942.23;78456;1298;3053765;-64
2023/07/03 10:18:13;;;;;;;4.40;1.80;;;;;;;30.02;31.78;98935.95;79502;1293;3012910;-64
2023/07/03 10:20:43;;;;;;;4.90;1.60;;;;;;;29.99;31.75;98948.23;78987;1292;3013555;-66
2023/07/03 10:23:22;;;;;;;3.60;1.70;;;;;;;29.90;32.26;98946.70;79459;1293;3013959;-64
2023/07/03 10:25:58;;;;;;;5.90;2.10;;;;;;;29.93;32.47;98949.60;78509;1295;3052156;-63
2023/07/03 10:28:29;;;;;;;3.90;1.80;;;;;;;30.10;32.41;98937.77;78524;1295;3053587;-64
2023/07/03 10:30:58;;;;;;;2.70;1.80;;;;;;;30.14;31.99;98929.15;79771;1295;3013096;-61
2023/07/03 10:33:33;;;;;;;6.00;2.10;;;;;;;30.17;32.26;98938.05;78545;1292;3050634;-64
2023/07/03 10:36:01;;;;;;;3.00;1.90;;;;;;;30.29;31.84;98939.64;79840;1291;3011551;-62
2023/07/03 10:39:05;;;;;;;4.60;1.60;;;;;;;30.37;31.23;98931.63;78298;1295;3050503;-66
2023/07/03 10:41:42;;;;;;;6.50;1.90;;;;;;;30.45;31.75;98932.63;78419;1291;3053004;-64
2023/07/03 10:44:15;;;;;;;5.30;1.80;;;;;;;30.59;31.75;98936.34;78586;1293;3049851;-63
2023/07/03 10:46:43;;;;;;;5.40;1.90;;;;;;;30.63;31.80;98940.70;79721;1295;3012860;-64
2023/07/03 10:49:23;;;;;;;2.50;2.00;;;;;;;30.55;31.78;98927.51;78495;1295;3053216;-63
2023/07/03 10:52:00;;;;;;;4.10;1.70;;;;;;;30.56;31.27;98934.20;78313;1291;3069185;-63
2023/07/03 10:54:33;;;;;;;2.20;2.00;;;;;;;30.66;31.17;98924.08;78517;1295;3052126;-63
2023/07/03 10:57:01;;;;;;;6.80;2.00;;;;;;;30.86;30.99;98919.86;79656;1294;3012021;-62
2023/07/03 10:59:33;;;;;;;6.20;2.10;;;;;;;31.04;31.41;98923.92;78377;1293;3049457;-62
2023/07/03 11:02:19;;;;;;;4.70;2.00;;;;;;;31.15;31.70;98918.12;79708;1295;3012705;-61
2023/07/03 11:05:44;;;;;;;5.00;1.60;;;;;;;31.28;31.11;98926.55;78404;1295;3050219;-63
2023/07/03 11:08:26;;;;;;;5.90;1.90;;;;;;;31.08;31.15;98923.11;78069;1303;3053246;-64
2023/07/03 11:11:08;;;;;;;4.60;2.10;;;;;;;30.98;31.34;98928.78;77947;1304;3054188;-65
2023/07/03 11:13:49;;;;;;;3.60;2.00;;;;;;;31.01;31.25;98923.40;78408;1295;3069536;-64
2023/07/03 11:16:18;;;;;;;4.60;1.80;;;;;;;30.99;30.92;98914.17;78571;1295;3051614;-63
2023/07/03 11:18:48;;;;;;;3.70;1.90;;;;;;;31.09;31.18;98911.59;79749;1295;3013698;-62
2023/07/03 11:21:38;;;;;;;2.80;1.50;;;;;;;31.26;31.17;98910.84;78581;1295;3052578;-63
2023/07/03 11:24:16;;;;;;;4.80;2.00;;;;;;;31.34;30.73;98907.72;78299;1295;3050605;-63
2023/07/03 11:27:05;;;;;;;3.50;2.40;;;;;;;31.12;30.87;98912.95;78432;1295;3052603;-63
2023/07/03 11:29:33;;;;;;;5.20;2.50;;;;;;;31.16;30.63;98911.51;78508;1295;3053442;-63
2023/07/03 11:31:59;;;;;;;4.00;2.30;;;;;;;31.50;30.31;98911.23;79546;1298;3013099;-62
2023/07/03 11:34:26;;;;;;;2.80;2.10;;;;;;;31.71;30.83;98915.23;79552;1297;3011743;-62
2023/07/03 11:36:54;;;;;;;4.60;1.80;;;;;;;31.87;30.66;98906.11;78468;1292;3026868;-64
2023/07/03 11:39:28;;;;;;;9.30;2.10;;;;;;;31.90;30.44;98912.57;79789;1295;3013483;-66
2023/07/03 11:42:02;;;;;;;4.80;1.80;;;;;;;31.90;30.73;98917.19;78566;1302;3051817;-64
2023/07/03 11:44:38;;;;;;;5.80;1.90;;;;;;;31.77;30.06;98913.54;79238;1295;3011627;-64
2023/07/03 11:47:11;;;;;;;4.10;2.20;;;;;;;31.68;29.87;98919.32;79086;1295;3013131;-64
2023/07/03 11:49:43;;;;;;;4.50;1.90;;;;;;;31.70;29.83;98910.23;79790;1295;3011248;-64
2023/07/03 11:52:12;;;;;;;3.50;1.80;;;;;;;31.90;29.53;98909.10;78320;1298;3068997;-64
2023/07/03 11:54:39;;;;;;;4.40;2.00;;;;;;;32.03;29.66;98902.68;79866;1293;3012729;-64
2023/07/03 11:57:27;;;;;;;4.10;2.20;;;;;;;32.32;28.77;98897.91;79542;1292;3013157;-64
2023/07/03 12:00:19;;;;;;;11.00;3.80;;;;;;;32.61;27.69;98898.31;78325;1292;3053135;-64
2023/07/03 12:02:52;;;;;;;9.30;2.30;;;;;;;32.70;27.82;98901.87;78364;1298;3050341;-63
2023/07/03 12:08:18;;;;;;;5.00;2.10;;;;;;;32.44;28.49;98900.92;78392;1295;3053426;-64
2023/07/03 12:10:52;;;;;;;2.50;1.70;;;;;;;32.77;28.30;98910.29;78562;1293;3068831;-63
2023/07/03 12:13:41;;;;;;;3.70;2.10;;;;;;;32.96;27.83;98908.88;79825;1294;3011869;-63
2023/07/03 12:16:14;;;;;;;8.80;2.00;;;;;;;32.76;27.99;98911.04;78247;1295;3057550;-63
2023/07/03 12:18:41;;;;;;;6.90;2.20;;;;;;;32.65;27.96;98910.27;79737;1291;3011774;-64
2023/07/03 12:21:09;;;;;;;7.40;2.30;;;;;;;32.74;27.99;98907.41;78478;1295;3052779;-62
2023/07/03 12:23:41;;;;;;;6.30;2.00;;;;;;;33.11;27.94;98903.13;79609;1295;3013645;-63
2023/07/03 12:26:15;;;;;;;7.40;2.30;;;;;;;33.19;27.81;98906.55;78502;1295;3053397;-63
2023/07/03 12:28:42;;;;;;;4.70;2.10;;;;;;;33.21;26.76;98901.51;79611;1295;3011711;-64
2023/07/03 12:31:20;;;;;;;4.40;1.80;;;;;;;33.38;27.46;98897.17;78327;1295;3051496;-62
2023/07/03 12:33:57;;;;;;;7.80;2.10;;;;;;;33.63;26.85;98893.39;78563;1295;3058145;-61
2023/07/03 12:36:33;;;;;;;7.10;2.40;;;;;;;33.93;26.67;98884.45;78529;1295;3050617;-62
2023/07/03 12:39:10;;;;;;;5.60;2.00;;;;;;;34.09;26.83;98885.50;78505;1292;3051941;-62
2023/07/03 12:41:40;;;;;;;6.30;2.10;;;;;;;34.13;26.40;98880.89;78513;1294;3051731;-63
2023/07/03 12:44:08;;;;;;;7.50;2.10;;;;;;;33.92;26.65;98888.21;79611;1295;3019104;-64
2023/07/03 12:46:37;;;;;;;3.70;2.00;;;;;;;33.79;26.63;98882.38;79571;1298;3012374;-63
2023/07/03 12:49:08;;;;;;;5.40;2.10;;;;;;;33.73;26.45;98890.70;78513;1295;3051933;-64
2023/07/03 12:51:41;;;;;;;9.60;2.40;;;;;;;33.91;26.80;98879.91;79721;1295;3011507;-63
2023/07/03 12:54:11;;;;;;;8.10;2.50;;;;;;;33.98;26.28;98894.36;78657;1292;3051206;-63
2023/07/03 12:56:38;;;;;;;8.40;2.10;;;;;;;33.85;26.01;98892.84;79581;1290;3011494;-65
2023/07/03 12:59:06;;;;;;;5.50;1.90;;;;;;;33.71;25.79;98897.66;79630;1294;3013035;-65
2023/07/03 13:01:35;;;;;;;5.70;2.30;;;;;;;33.74;25.82;98893.92;78501;1296;3052246;-65
2023/07/03 13:04:02;;;;;;;7.20;1.90;;;;;;;33.88;25.67;98893.47;79713;1298;3013225;-64
2023/07/03 13:06:29;;;;;;;10.40;1.90;;;;;;;33.83;25.42;98902.57;79657;1292;3011516;-64
2023/07/03 13:08:57;;;;;;;4.00;2.00;;;;;;;33.95;25.62;98905.51;78687;1291;3049878;-63
2023/07/03 13:11:50;;;;;;;6.60;1.80;;;;;;;33.95;25.02;98905.73;79741;1293;3012822;-62
2023/07/03 13:14:24;;;;;;;5.00;2.00;;;;;;;34.33;24.71;98902.13;78488;1295;3052988;-64
2023/07/03 13:16:56;;;;;;;3.90;2.10;;;;;;;34.48;24.62;98911.65;79094;1297;3013009;-63
2023/07/03 13:19:34;;;;;;;4.80;1.90;;;;;;;34.22;24.76;98908.64;79655;1297;3013114;-63
2023/07/03 13:22:06;;;;;;;6.20;1.80;;;;;;;34.31;25.01;98910.13;78648;1291;3068167;-63
2023/07/03 13:24:34;;;;;;;5.20;2.10;;;;;;;34.39;25.03;98903.11;79687;1293;3011572;-63
2023/07/03 13:27:02;;;;;;;2.70;1.70;;;;;;;34.56;24.88;98909.85;78267;1298;3056045;-64
2023/07/03 13:29:33;;;;;;;3.40;1.60;;;;;;;34.67;24.56;98911.21;79887;1295;3013613;-63